createdAt,value
2022-11-07T00:01:52.478Z,3.10
2022-11-07T00:04:20.459Z,3.90
2022-11-07T00:06:48.392Z,3.70
2022-11-07T00:09:16.515Z,3.40
2022-11-07T00:11:44.480Z,3.50
2022-11-07T00:14:13.364Z,3.13
2022-11-07T00:16:42.971Z,4.03
2022-11-07T00:19:11.029Z,3.40
2022-11-07T00:21:39.589Z,3.17
2022-11-07T00:24:08.799Z,3.27
2022-11-07T00:26:37.541Z,3.20
2022-11-07T00:29:07.485Z,2.80
2022-11-07T00:31:35.539Z,2.73
2022-11-07T00:34:04.789Z,2.37
2022-11-07T00:36:32.735Z,2.10
2022-11-07T00:39:00.795Z,2.77
2022-11-07T00:41:29.525Z,2.80
2022-11-07T00:43:57.779Z,2.40
2022-11-07T00:46:26.205Z,2.40
2022-11-07T00:48:54.223Z,2.57
2022-11-07T00:51:25.749Z,2.87
2022-11-07T00:53:54.241Z,2.57
2022-11-07T00:56:24.454Z,2.73
2022-11-07T00:58:55.879Z,2.57
2022-11-07T01:01:26.290Z,2.80
2022-11-07T01:04:11.652Z,2.50
2022-11-07T01:06:43.488Z,2.80
2022-11-07T01:09:13.782Z,3.10
2022-11-07T01:11:42.139Z,3.00
2022-11-07T01:14:11.557Z,2.67
2022-11-07T01:16:39.697Z,3.10
2022-11-07T01:19:08.780Z,3.13
2022-11-07T01:21:40.109Z,3.07
2022-11-07T01:24:09.443Z,3.20
2022-11-07T01:26:38.614Z,4.37
2022-11-07T01:29:07.116Z,3.27
2022-11-07T01:31:35.145Z,3.53
2022-11-07T01:34:03.705Z,3.10
2022-11-07T01:36:31.777Z,3.20
2022-11-07T01:39:01.306Z,3.83
2022-11-07T01:41:31.793Z,3.63
2022-11-07T01:44:02.507Z,3.50
2022-11-07T01:46:33.476Z,3.23
2022-11-07T01:49:07.467Z,3.53
2022-11-07T01:51:41.458Z,3.37
2022-11-07T01:54:13.211Z,3.80
2022-11-07T01:56:45.204Z,3.17
2022-11-07T01:59:19.564Z,3.90
2022-11-07T02:01:50.464Z,3.03
2022-11-07T02:04:21.068Z,3.53
2022-11-07T02:06:53.300Z,3.53
2022-11-07T02:09:22.801Z,3.63
2022-11-07T02:11:50.700Z,4.00
2022-11-07T02:14:19.927Z,3.40
2022-11-07T02:16:48.076Z,4.80
2022-11-07T02:19:25.570Z,3.90
2022-11-07T02:21:58.808Z,4.37
2022-11-07T02:24:31.801Z,3.97
2022-11-07T02:27:01.920Z,4.53
2022-11-07T02:29:31.602Z,3.97
2022-11-07T02:32:03.516Z,3.70
2022-11-07T02:34:31.625Z,3.77
2022-11-07T02:37:00.861Z,3.70
2022-11-07T02:39:30.419Z,3.83
2022-11-07T02:42:00.469Z,3.77
2022-11-07T02:44:31.131Z,3.70
2022-11-07T02:47:00.027Z,3.83
2022-11-07T02:49:28.062Z,3.50
2022-11-07T02:51:55.994Z,4.40
2022-11-07T02:54:23.890Z,3.40
2022-11-07T02:56:53.300Z,4.53
2022-11-07T02:59:26.613Z,3.93
2022-11-07T03:01:55.130Z,4.30
2022-11-07T03:04:24.071Z,3.80
2022-11-07T03:06:52.511Z,3.83
2022-11-07T03:09:20.477Z,4.70
2022-11-07T03:11:48.356Z,4.13
2022-11-07T03:14:17.695Z,3.93
2022-11-07T03:16:45.668Z,4.03
2022-11-07T03:19:13.552Z,3.50
2022-11-07T03:21:41.433Z,3.90
2022-11-07T03:24:09.538Z,3.77
2022-11-07T03:26:37.455Z,3.37
2022-11-07T03:29:06.145Z,4.23
2022-11-07T03:31:35.495Z,3.90
2022-11-07T03:34:03.743Z,4.03
2022-11-07T03:36:31.780Z,3.70
2022-11-07T03:38:59.684Z,3.70
2022-11-07T03:41:27.626Z,3.57
2022-11-07T03:43:55.520Z,3.90
2022-11-07T03:46:23.433Z,3.27
2022-11-07T03:48:52.704Z,3.50
2022-11-07T03:51:20.677Z,2.87
2022-11-07T03:53:48.597Z,3.40
2022-11-07T03:56:16.676Z,2.90
2022-11-07T03:58:44.728Z,3.30
2022-11-07T04:01:13.369Z,3.13
2022-11-07T04:03:41.365Z,3.10
2022-11-07T04:06:10.746Z,3.10
2022-11-07T04:08:38.696Z,3.10
2022-11-07T04:11:07.335Z,3.50
2022-11-07T04:13:52.955Z,3.07
2022-11-07T04:16:38.392Z,2.80
2022-11-07T04:19:06.294Z,2.90
2022-11-07T04:21:35.565Z,3.00
2022-11-07T04:24:03.626Z,3.20
2022-11-07T04:26:49.187Z,2.87
2022-11-07T04:29:17.132Z,3.20
2022-11-07T04:31:45.019Z,3.17
2022-11-07T04:34:12.936Z,3.00
2022-11-07T04:36:43.017Z,3.67
2022-11-07T04:39:10.974Z,3.03
2022-11-07T04:41:39.027Z,3.20
2022-11-07T04:44:06.991Z,3.00
2022-11-07T04:46:35.027Z,3.10
2022-11-07T04:49:02.957Z,2.93
2022-11-07T04:51:30.972Z,2.60
2022-11-07T04:54:00.595Z,2.87
2022-11-07T04:56:34.184Z,2.77
2022-11-07T04:59:02.480Z,2.83
2022-11-07T05:01:30.598Z,3.10
2022-11-07T05:03:58.623Z,2.63
2022-11-07T05:06:26.853Z,2.70
2022-11-07T05:08:54.810Z,2.33
2022-11-07T05:11:24.139Z,2.70
2022-11-07T05:13:52.100Z,3.60
2022-11-07T05:16:20.109Z,2.93
2022-11-07T05:18:48.158Z,2.53
2022-11-07T05:21:16.137Z,3.00
2022-11-07T05:23:44.167Z,2.70
2022-11-07T05:26:12.083Z,2.90
2022-11-07T05:28:41.453Z,2.77
2022-11-07T05:31:10.361Z,2.50
2022-11-07T05:33:38.252Z,2.47
2022-11-07T05:36:16.571Z,2.77
2022-11-07T05:38:46.550Z,2.47
2022-11-07T05:41:15.690Z,2.60
2022-11-07T05:43:45.364Z,2.23
2022-11-07T05:46:13.726Z,2.20
2022-11-07T05:48:41.845Z,2.50
2022-11-07T05:51:10.094Z,2.47
2022-11-07T05:53:38.114Z,2.60
2022-11-07T05:56:06.546Z,2.50
2022-11-07T05:58:34.457Z,2.60
2022-11-07T06:01:04.745Z,2.63
2022-11-07T06:03:33.069Z,2.43
2022-11-07T06:06:01.050Z,2.40
2022-11-07T06:08:29.107Z,2.43
2022-11-07T06:10:57.029Z,2.20
2022-11-07T06:13:25.058Z,2.90
2022-11-07T06:15:53.005Z,2.40
2022-11-07T06:18:22.684Z,2.63
2022-11-07T06:20:50.650Z,2.47
2022-11-07T06:23:19.915Z,2.83
2022-11-07T06:25:48.280Z,3.23
2022-11-07T06:28:16.609Z,3.03
2022-11-07T06:30:45.380Z,2.90
2022-11-07T06:33:15.976Z,2.50
2022-11-07T06:35:46.572Z,2.50
2022-11-07T06:38:16.370Z,2.60
2022-11-07T06:40:44.900Z,2.60
2022-11-07T06:43:15.498Z,2.73
2022-11-07T06:45:44.854Z,2.30
2022-11-07T06:48:14.073Z,2.67
2022-11-07T06:50:42.233Z,2.60
2022-11-07T06:53:13.421Z,2.40
2022-11-07T06:55:42.112Z,2.10
2022-11-07T06:58:10.174Z,2.40
2022-11-07T07:00:38.806Z,2.30
2022-11-07T07:03:07.057Z,2.43
2022-11-07T07:05:35.570Z,2.20
2022-11-07T07:08:04.193Z,2.47
2022-11-07T07:10:37.533Z,1.80
2022-11-07T07:13:05.521Z,2.10
2022-11-07T07:15:49.383Z,2.10
2022-11-07T07:18:18.327Z,2.40
2022-11-07T07:20:46.895Z,2.07
2022-11-07T07:23:14.873Z,2.57
2022-11-07T07:25:44.416Z,1.80
2022-11-07T07:28:12.333Z,2.20
2022-11-07T07:30:40.470Z,1.90
2022-11-07T07:33:08.413Z,1.43
2022-11-07T07:35:36.352Z,2.10
2022-11-07T07:38:04.362Z,1.63
2022-11-07T07:40:32.360Z,2.20
2022-11-07T07:43:01.629Z,2.00
2022-11-07T07:45:29.550Z,2.20
2022-11-07T07:48:02.195Z,2.60
2022-11-07T07:50:30.133Z,1.70
2022-11-07T07:52:58.377Z,1.63
2022-11-07T07:55:26.635Z,2.10
2022-11-07T07:57:54.560Z,1.77
2022-11-07T08:00:24.066Z,2.00
2022-11-07T08:02:52.011Z,1.77
2022-11-07T08:05:19.949Z,1.67
2022-11-07T08:07:49.324Z,2.20
2022-11-07T08:13:07.319Z,1.80
2022-11-07T08:15:36.733Z,2.00
2022-11-07T08:18:05.661Z,1.90
2022-11-07T08:20:33.733Z,2.30
2022-11-07T08:23:02.847Z,1.90
2022-11-07T08:25:30.821Z,1.53
2022-11-07T08:27:58.861Z,2.00
2022-11-07T08:30:28.308Z,2.10
2022-11-07T08:33:00.495Z,1.90
2022-11-07T08:35:28.752Z,2.57
2022-11-07T08:37:56.711Z,1.80
2022-11-07T08:40:24.704Z,2.27
2022-11-07T08:42:52.940Z,1.77
2022-11-07T08:45:20.939Z,1.60
2022-11-07T08:47:48.880Z,2.00
2022-11-07T08:50:18.260Z,1.70
2022-11-07T08:52:46.326Z,2.10
2022-11-07T08:55:14.254Z,2.10
2022-11-07T08:57:42.259Z,2.20
2022-11-07T09:00:11.360Z,2.10
2022-11-07T09:03:12.581Z,2.27
2022-11-07T09:05:28.594Z,1.97
2022-11-07T09:07:56.609Z,2.30
2022-11-07T09:10:24.980Z,1.87
2022-11-07T09:12:53.534Z,1.90
2022-11-07T09:15:22.000Z,2.27
2022-11-07T09:17:51.284Z,2.00
2022-11-07T09:20:19.723Z,2.10
2022-11-07T09:22:49.422Z,1.90
2022-11-07T09:25:19.580Z,2.83
2022-11-07T09:27:47.573Z,2.43
2022-11-07T09:30:15.546Z,2.87
2022-11-07T09:32:45.365Z,1.53
2022-11-07T09:35:14.501Z,2.10
2022-11-07T09:37:43.120Z,2.00
2022-11-07T09:40:24.539Z,2.50
2022-11-07T09:43:04.026Z,2.40
2022-11-07T09:45:42.742Z,2.30
2022-11-07T09:48:19.238Z,2.10
2022-11-07T09:50:49.193Z,1.80
2022-11-07T09:53:23.698Z,2.20
2022-11-07T09:55:57.121Z,1.60
2022-11-07T09:58:30.487Z,2.60
2022-11-07T10:01:01.898Z,2.23
2022-11-07T10:03:30.313Z,2.00
2022-11-07T10:06:05.505Z,2.20
2022-11-07T10:08:41.554Z,1.97
2022-11-07T10:11:15.163Z,2.50
2022-11-07T10:14:00.147Z,1.97
2022-11-07T10:16:40.206Z,2.47
2022-11-07T10:19:22.596Z,2.20
2022-11-07T10:22:03.127Z,2.40
2022-11-07T10:24:46.358Z,1.70
2022-11-07T10:27:15.945Z,1.90
2022-11-07T10:29:48.682Z,1.73
2022-11-07T10:32:23.243Z,1.83
2022-11-07T10:34:58.190Z,2.03
2022-11-07T10:37:26.185Z,2.30
2022-11-07T10:39:54.146Z,2.73
2022-11-07T10:42:26.687Z,1.87
2022-11-07T10:44:57.259Z,2.10
2022-11-07T10:47:27.702Z,2.30
2022-11-07T10:49:58.044Z,2.33
2022-11-07T10:52:27.931Z,3.10
2022-11-07T10:55:08.138Z,2.47
2022-11-07T10:57:37.547Z,2.43
2022-11-07T11:00:19.535Z,1.90
2022-11-07T11:02:49.790Z,1.97
2022-11-07T11:05:23.196Z,2.70
2022-11-07T11:07:51.479Z,2.47
2022-11-07T11:10:21.600Z,2.10
2022-11-07T11:12:51.698Z,2.33
2022-11-07T11:15:22.682Z,2.50
2022-11-07T11:18:01.175Z,2.63
2022-11-07T11:20:36.711Z,1.73
2022-11-07T11:23:07.753Z,2.80
2022-11-07T11:25:45.727Z,2.30
2022-11-07T11:28:23.710Z,2.77
2022-11-07T11:30:58.035Z,2.27
2022-11-07T11:33:31.815Z,2.63
2022-11-07T11:36:05.115Z,2.30
2022-11-07T11:38:37.497Z,2.17
2022-11-07T11:41:14.422Z,2.10
2022-11-07T11:43:49.445Z,2.63
2022-11-07T11:46:26.735Z,1.80
2022-11-07T11:49:00.665Z,2.70
2022-11-07T11:51:39.816Z,2.10
2022-11-07T11:54:10.814Z,2.10
2022-11-07T11:56:51.026Z,2.03
2022-11-07T11:59:50.770Z,2.40
2022-11-07T12:02:47.084Z,1.93
2022-11-07T12:05:35.102Z,1.83
2022-11-07T12:08:17.927Z,2.03
2022-11-07T12:10:54.010Z,1.90
2022-11-07T12:13:30.049Z,2.47
2022-11-07T12:16:09.676Z,2.50
2022-11-07T12:18:44.581Z,1.33
2022-11-07T12:21:24.766Z,1.90
2022-11-07T12:24:07.459Z,1.70
2022-11-07T12:26:38.250Z,2.80
2022-11-07T12:29:16.693Z,1.80
2022-11-07T12:31:59.653Z,1.90
2022-11-07T12:34:42.103Z,1.73
2022-11-07T12:37:27.780Z,1.97
2022-11-07T12:40:06.636Z,1.40
2022-11-07T12:42:46.787Z,2.33
2022-11-07T12:45:22.320Z,1.87
2022-11-07T12:48:19.397Z,1.90
2022-11-07T12:50:59.981Z,2.00
2022-11-07T12:53:38.270Z,1.70
2022-11-07T12:56:12.383Z,2.23
2022-11-07T12:58:42.512Z,2.10
2022-11-07T13:01:13.761Z,2.50
2022-11-07T13:03:57.074Z,2.00
2022-11-07T13:06:31.734Z,1.83
2022-11-07T13:09:10.162Z,2.00
2022-11-07T13:11:44.975Z,2.03
2022-11-07T13:14:28.324Z,2.33
2022-11-07T13:17:12.788Z,2.20
2022-11-07T13:19:44.083Z,2.07
2022-11-07T13:22:24.167Z,2.20
2022-11-07T13:24:54.795Z,2.10
2022-11-07T13:27:24.507Z,2.30
2022-11-07T13:29:53.011Z,2.17
2022-11-07T13:32:21.220Z,2.40
2022-11-07T13:34:56.950Z,2.00
2022-11-07T13:37:29.098Z,2.03
2022-11-07T13:40:03.897Z,2.07
2022-11-07T13:42:34.959Z,2.37
2022-11-07T13:45:19.808Z,2.00
2022-11-07T13:47:48.673Z,2.30
2022-11-07T13:50:24.728Z,2.83
2022-11-07T13:52:59.151Z,2.57
2022-11-07T13:55:31.649Z,3.30
2022-11-07T13:58:04.863Z,1.90
2022-11-07T14:00:34.745Z,2.67
2022-11-07T14:03:03.188Z,1.57
2022-11-07T14:05:35.113Z,2.10
2022-11-07T14:08:05.590Z,1.80
2022-11-07T14:10:39.169Z,2.20
2022-11-07T14:13:11.666Z,1.93
2022-11-07T14:15:47.542Z,2.13
2022-11-07T14:18:16.994Z,2.43
2022-11-07T14:20:51.660Z,1.80
2022-11-07T14:23:22.343Z,1.50
2022-11-07T14:25:58.835Z,1.60
2022-11-07T14:28:34.624Z,2.17
2022-11-07T14:31:03.589Z,2.10
2022-11-07T14:33:31.465Z,1.87
2022-11-07T14:36:06.481Z,1.90
2022-11-07T14:38:34.403Z,2.17
2022-11-07T14:41:03.531Z,2.20
2022-11-07T14:43:32.031Z,1.97
2022-11-07T14:46:13.367Z,2.03
2022-11-07T14:48:44.278Z,1.83
2022-11-07T14:51:15.857Z,2.30
2022-11-07T14:53:52.444Z,2.20
2022-11-07T14:56:24.111Z,2.07
2022-11-07T14:58:52.102Z,2.60
2022-11-07T15:01:28.412Z,2.17
2022-11-07T15:03:58.715Z,2.10
2022-11-07T15:06:33.346Z,2.13
2022-11-07T15:09:03.705Z,2.80
2022-11-07T15:11:34.493Z,2.57
2022-11-07T15:14:05.002Z,1.80
2022-11-07T15:16:37.864Z,2.07
2022-11-07T15:19:08.661Z,1.83
2022-11-07T15:21:39.594Z,2.20
2022-11-07T15:24:32.799Z,1.40
2022-11-07T15:27:01.916Z,2.40
2022-11-07T15:29:33.790Z,2.90
2022-11-07T15:32:08.044Z,2.27
2022-11-07T15:34:58.724Z,1.80
2022-11-07T15:37:26.910Z,1.80
2022-11-07T15:39:55.210Z,1.90
2022-11-07T15:42:23.120Z,1.60
2022-11-07T15:44:51.038Z,2.10
2022-11-07T15:47:21.689Z,1.90
2022-11-07T15:49:50.161Z,1.80
2022-11-07T15:52:18.106Z,2.20
2022-11-07T15:54:47.567Z,1.60
2022-11-07T15:57:15.573Z,1.80
2022-11-07T15:59:43.712Z,2.67
2022-11-07T16:02:16.585Z,2.00
2022-11-07T16:04:44.647Z,2.17
2022-11-07T16:07:17.733Z,1.80
2022-11-07T16:09:48.631Z,2.00
2022-11-07T16:12:18.457Z,2.90
2022-11-07T16:14:46.464Z,2.40
2022-11-07T16:17:16.662Z,1.90
2022-11-07T16:19:44.858Z,1.40
2022-11-07T16:22:13.432Z,2.43
2022-11-07T16:24:41.353Z,1.70
2022-11-07T16:27:11.793Z,2.10
2022-11-07T16:29:44.116Z,2.40
2022-11-07T16:32:17.970Z,2.10
2022-11-07T16:34:46.346Z,2.00
2022-11-07T16:37:14.338Z,1.80
2022-11-07T16:39:42.314Z,2.07
2022-11-07T16:42:15.303Z,2.00
2022-11-07T16:44:43.312Z,2.30
2022-11-07T16:47:14.898Z,2.00
2022-11-07T16:49:43.343Z,2.33
2022-11-07T16:52:15.379Z,2.10
2022-11-07T16:54:43.425Z,2.87
2022-11-07T16:57:14.550Z,1.93
2022-11-07T16:59:43.699Z,1.90
2022-11-07T17:02:20.758Z,1.73
2022-11-07T17:04:50.485Z,1.90
2022-11-07T17:07:19.419Z,2.00
2022-11-07T17:09:47.531Z,2.13
2022-11-07T17:12:19.285Z,2.43
2022-11-07T17:14:47.621Z,2.20
2022-11-07T17:17:17.114Z,1.80
2022-11-07T17:19:46.287Z,2.17
2022-11-07T17:22:15.352Z,1.77
2022-11-07T17:24:43.678Z,1.40
2022-11-07T17:27:22.183Z,1.80
2022-11-07T17:29:50.885Z,1.90
2022-11-07T17:32:18.999Z,1.73
2022-11-07T17:34:59.190Z,1.73
2022-11-07T17:37:32.593Z,1.73
2022-11-07T17:40:00.578Z,1.90
2022-11-07T17:42:33.761Z,1.90
2022-11-07T17:45:05.355Z,2.27
2022-11-07T17:47:35.126Z,1.90
2022-11-07T17:50:03.262Z,2.70
2022-11-07T17:52:32.054Z,2.10
2022-11-07T17:55:00.135Z,2.20
2022-11-07T17:57:29.414Z,2.17
2022-11-07T17:59:57.447Z,1.73
2022-11-07T18:02:25.748Z,2.23
2022-11-07T18:04:53.776Z,2.20
2022-11-07T18:07:21.792Z,1.80
2022-11-07T18:09:51.350Z,1.67
2022-11-07T18:12:19.353Z,2.00
2022-11-07T18:14:48.863Z,3.90
2022-11-07T18:17:16.793Z,4.33
2022-11-07T18:19:44.743Z,5.03
2022-11-07T18:22:12.646Z,4.20
2022-11-07T18:24:41.625Z,3.60
2022-11-07T18:27:10.784Z,2.83
2022-11-07T18:29:40.214Z,2.20
2022-11-07T18:32:09.525Z,2.77
2022-11-07T18:34:37.500Z,2.50
2022-11-07T18:37:05.544Z,1.93
2022-11-07T18:39:33.796Z,2.27
2022-11-07T18:42:01.858Z,2.17
2022-11-07T18:44:29.922Z,3.10
2022-11-07T18:46:57.923Z,2.07
2022-11-07T18:49:27.261Z,2.20
2022-11-07T18:51:55.225Z,2.03
2022-11-07T18:54:23.948Z,3.00
2022-11-07T18:56:51.845Z,1.80
2022-11-07T18:59:19.815Z,2.10
2022-11-07T19:01:47.828Z,2.03
2022-11-07T19:04:15.870Z,2.23
2022-11-07T19:06:56.914Z,2.30
2022-11-07T19:09:27.764Z,2.43
2022-11-07T19:11:56.114Z,2.40
2022-11-07T19:14:24.254Z,2.87
2022-11-07T19:16:52.445Z,2.50
2022-11-07T19:19:20.366Z,2.37
2022-11-07T19:21:49.766Z,2.80
2022-11-07T19:24:17.674Z,2.20
2022-11-07T19:26:45.679Z,1.90
2022-11-07T19:29:13.575Z,1.93
2022-11-07T19:31:41.623Z,2.37
2022-11-07T19:34:09.554Z,2.70
2022-11-07T19:36:37.457Z,2.40
2022-11-07T19:39:06.942Z,1.97
2022-11-07T19:41:34.884Z,2.23
2022-11-07T19:44:04.369Z,2.27
2022-11-07T19:46:32.488Z,2.37
2022-11-07T19:49:00.364Z,2.50
2022-11-07T19:51:28.330Z,2.40
2022-11-07T19:53:57.888Z,2.20
2022-11-07T19:56:29.400Z,2.37
2022-11-07T19:58:57.755Z,1.90
2022-11-07T20:01:28.359Z,2.20
2022-11-07T20:03:57.291Z,2.00
2022-11-07T20:06:27.661Z,1.93
2022-11-07T20:08:55.661Z,2.00
2022-11-07T20:11:25.415Z,2.17
2022-11-07T20:14:00.059Z,2.70
2022-11-07T20:16:31.140Z,2.00
2022-11-07T20:18:59.082Z,2.17
2022-11-07T20:21:28.952Z,2.80
2022-11-07T20:23:59.319Z,2.37
2022-11-07T20:26:29.352Z,2.57
2022-11-07T20:28:59.586Z,3.03
2022-11-07T20:31:30.385Z,2.20
2022-11-07T20:33:59.269Z,2.20
2022-11-07T20:36:27.273Z,2.27
2022-11-07T20:38:55.753Z,2.50
2022-11-07T20:41:24.351Z,2.40
2022-11-07T20:43:54.620Z,1.80
2022-11-07T20:46:24.276Z,2.40
2022-11-07T20:48:53.491Z,2.27
2022-11-07T20:51:25.189Z,2.27
2022-11-07T20:53:54.584Z,2.30
2022-11-07T20:56:24.233Z,2.10
2022-11-07T20:58:52.636Z,1.93
2022-11-07T21:01:24.848Z,2.00
2022-11-07T21:03:52.906Z,2.10
2022-11-07T21:06:21.349Z,2.27
2022-11-07T21:08:50.755Z,1.80
2022-11-07T21:11:18.854Z,2.00
2022-11-07T21:13:52.718Z,1.90
2022-11-07T21:16:21.648Z,2.40
2022-11-07T21:18:51.781Z,2.43
2022-11-07T21:21:22.213Z,2.47
2022-11-07T21:23:51.783Z,2.47
2022-11-07T21:26:21.800Z,2.27
2022-11-07T21:28:50.690Z,1.83
2022-11-07T21:31:23.570Z,3.27
2022-11-07T21:33:53.058Z,5.90
2022-11-07T21:36:23.140Z,6.10
2022-11-07T21:38:51.234Z,4.23
2022-11-07T21:41:19.517Z,2.70
2022-11-07T21:43:47.455Z,2.67
2022-11-07T21:46:16.868Z,2.50
2022-11-07T21:48:45.723Z,2.00
2022-11-07T21:51:16.773Z,2.40
2022-11-07T21:53:45.725Z,2.17
2022-11-07T21:56:16.204Z,2.43
2022-11-07T21:58:44.661Z,2.10
2022-11-07T22:01:12.870Z,2.63
2022-11-07T22:06:30.296Z,2.43
2022-11-07T22:08:58.247Z,2.30
2022-11-07T22:11:26.170Z,2.60
2022-11-07T22:13:54.278Z,2.60
2022-11-07T22:16:23.216Z,2.43
2022-11-07T22:18:51.638Z,2.13
2022-11-07T22:21:21.279Z,2.30
2022-11-07T22:23:50.794Z,2.33
2022-11-07T22:26:21.189Z,2.37
2022-11-07T22:28:49.817Z,1.93
2022-11-07T22:31:20.462Z,2.10
2022-11-07T22:33:48.431Z,2.43
2022-11-07T22:36:16.751Z,2.60
2022-11-07T22:38:44.842Z,2.63
2022-11-07T22:41:16.576Z,3.00
2022-11-07T22:43:44.536Z,2.53
2022-11-07T22:46:14.480Z,3.00
2022-11-07T22:48:42.488Z,2.53
2022-11-07T22:51:13.067Z,2.73
2022-11-07T22:53:41.201Z,2.40
2022-11-07T22:56:10.437Z,3.00
2022-11-07T22:58:40.386Z,2.60
2022-11-07T23:01:14.625Z,2.77
2022-11-07T23:03:42.547Z,3.27
2022-11-07T23:06:11.082Z,3.03
2022-11-07T23:08:39.903Z,2.67
2022-11-07T23:14:02.796Z,3.17
2022-11-07T23:16:33.208Z,2.23
2022-11-07T23:19:02.612Z,3.07
2022-11-07T23:21:30.623Z,2.90
2022-11-07T23:23:59.912Z,2.60
2022-11-07T23:26:33.787Z,2.10
2022-11-07T23:29:10.407Z,3.00
2022-11-07T23:31:39.727Z,2.40
2022-11-07T23:34:07.880Z,3.10
2022-11-07T23:36:36.233Z,2.30
2022-11-07T23:39:07.180Z,2.47
2022-11-07T23:41:35.802Z,1.93
2022-11-07T23:44:06.852Z,2.37
2022-11-07T23:46:53.710Z,1.73
2022-11-07T23:49:40.093Z,2.17
2022-11-07T23:52:07.981Z,1.93
2022-11-07T23:54:55.464Z,2.60
2022-11-07T23:57:23.423Z,2.87
